createdAt,value
2023-05-13T00:00:38.534Z,97632.00
2023-05-13T00:03:06.654Z,97633.28
2023-05-13T00:05:34.586Z,97606.88
2023-05-13T00:08:07.051Z,97640.34
2023-05-13T00:10:35.084Z,97588.19
2023-05-13T00:13:04.854Z,97622.13
2023-05-13T00:15:33.063Z,97620.22
2023-05-13T00:18:01.234Z,97614.13
2023-05-13T00:20:29.432Z,97604.50
2023-05-13T00:22:57.204Z,97616.84
2023-05-13T00:25:25.343Z,97606.50
2023-05-13T00:27:53.566Z,97602.91
2023-05-13T00:30:23.254Z,97600.38
2023-05-13T00:32:51.886Z,97591.91
2023-05-13T00:35:20.209Z,97591.78
2023-05-13T00:37:48.011Z,97601.50
2023-05-13T00:40:21.256Z,97601.69
2023-05-13T00:42:49.294Z,97609.41
2023-05-13T00:45:17.376Z,97609.63
2023-05-13T00:47:46.813Z,97601.59
2023-05-13T00:50:15.570Z,97605.19
2023-05-13T00:52:44.453Z,97611.53
2023-05-13T00:55:12.868Z,97615.22
2023-05-13T00:57:41.218Z,97611.75
2023-05-13T01:00:10.483Z,97614.38
2023-05-13T01:02:42.998Z,97614.47
2023-05-13T01:05:19.499Z,97611.63
2023-05-13T01:07:53.668Z,97610.69
2023-05-13T01:10:26.854Z,97609.63
2023-05-13T01:12:58.182Z,97612.84
2023-05-13T01:15:27.716Z,97608.41
2023-05-13T01:17:57.723Z,97614.97
2023-05-13T01:20:28.500Z,97607.75
2023-05-13T01:22:57.728Z,97607.56
2023-05-13T01:25:26.156Z,97607.31
2023-05-13T01:27:54.436Z,97581.78
2023-05-13T01:30:23.870Z,97607.13
2023-05-13T01:32:53.012Z,97594.13
2023-05-13T01:35:21.872Z,97612.41
2023-05-13T01:37:50.962Z,97614.09
2023-05-13T01:40:31.920Z,97611.22
2023-05-13T01:43:01.351Z,97599.31
2023-05-13T01:45:30.087Z,97606.69
2023-05-13T01:47:57.959Z,97604.06
2023-05-13T01:50:26.528Z,97609.13
2023-05-13T01:52:54.613Z,97615.97
2023-05-13T01:55:23.815Z,97617.56
2023-05-13T01:57:51.625Z,97609.66
2023-05-13T02:00:20.420Z,97606.91
2023-05-13T02:02:48.531Z,97614.69
2023-05-13T02:05:16.809Z,97616.38
2023-05-13T02:07:45.074Z,97616.38
2023-05-13T02:10:13.200Z,97609.22
2023-05-13T02:12:42.366Z,97607.41
2023-05-13T02:15:11.338Z,97602.88
2023-05-13T02:17:39.392Z,97603.94
2023-05-13T02:20:09.328Z,97604.78
2023-05-13T02:22:37.527Z,97597.19
2023-05-13T02:25:05.721Z,97598.13
2023-05-13T02:27:33.468Z,97606.06
2023-05-13T02:30:03.044Z,97607.75
2023-05-13T02:32:30.891Z,97598.22
2023-05-13T02:34:58.895Z,97598.22
2023-05-13T02:37:26.752Z,97599.28
2023-05-13T02:39:54.642Z,97592.75
2023-05-13T02:42:22.459Z,97592.53
2023-05-13T02:44:50.374Z,97590.25
2023-05-13T02:47:19.561Z,97601.66
2023-05-13T02:49:47.327Z,97599.72
2023-05-13T02:52:15.104Z,97599.94
2023-05-13T02:54:42.860Z,97592.13
2023-05-13T02:57:10.675Z,97592.34
2023-05-13T02:59:38.416Z,97597.84
2023-05-13T03:02:06.707Z,97591.06
2023-05-13T03:04:36.010Z,97597.19
2023-05-13T03:07:03.818Z,97597.44
2023-05-13T03:09:35.062Z,97594.56
2023-05-13T03:12:02.918Z,97599.84
2023-05-13T03:14:30.782Z,97589.19
2023-05-13T03:16:58.618Z,97593.59
2023-05-13T03:19:26.466Z,97594.78
2023-05-13T03:21:55.856Z,97598.78
2023-05-13T03:24:23.689Z,97601.31
2023-05-13T03:26:51.473Z,97607.31
2023-05-13T03:29:19.366Z,97606.59
2023-05-13T03:31:47.351Z,97612.75
2023-05-13T03:34:15.161Z,97606.47
2023-05-13T03:36:42.964Z,97603.03
2023-05-13T03:39:12.123Z,97606.47
2023-05-13T03:41:39.906Z,97613.25
2023-05-13T03:44:07.707Z,97604.47
2023-05-13T03:46:35.493Z,97607.88
2023-05-13T03:49:03.319Z,97610.50
2023-05-13T03:51:31.203Z,97605.94
2023-05-13T03:53:58.972Z,97610.28
2023-05-13T03:56:28.109Z,97611.03
2023-05-13T03:58:56.090Z,97610.94
2023-05-13T04:01:23.834Z,97612.63
2023-05-13T04:03:51.598Z,97612.38
2023-05-13T04:06:19.409Z,97614.28
2023-05-13T04:08:47.384Z,97615.88
2023-05-13T04:11:15.136Z,97609.66
2023-05-13T04:13:45.983Z,97614.94
2023-05-13T04:16:14.478Z,97621.56
2023-05-13T04:18:42.585Z,97621.47
2023-05-13T04:21:11.443Z,97625.06
2023-05-13T04:23:39.189Z,97626.75
2023-05-13T04:26:07.072Z,97629.91
2023-05-13T04:28:36.227Z,97627.91
2023-05-13T04:31:05.634Z,97636.69
2023-05-13T04:33:33.678Z,97630.41
2023-05-13T04:36:01.522Z,97629.25
2023-05-13T04:38:29.312Z,97628.94
2023-05-13T04:40:57.087Z,97635.06
2023-05-13T04:43:24.852Z,97624.72
2023-05-13T04:45:52.741Z,97635.06
2023-05-13T04:48:21.946Z,97634.84
2023-05-13T04:50:52.585Z,97629.56
2023-05-13T04:53:20.852Z,97637.25
2023-05-13T04:55:49.728Z,97636.41
2023-05-13T04:58:17.848Z,97647.81
2023-05-13T05:00:45.857Z,97647.38
2023-05-13T05:03:13.847Z,97644.53
2023-05-13T05:05:42.993Z,97638.50
2023-05-13T05:08:10.804Z,97643.59
2023-05-13T05:10:38.612Z,97627.44
2023-05-13T05:13:06.560Z,97643.34
2023-05-13T05:15:34.324Z,97653.72
2023-05-13T05:18:02.165Z,97646.28
2023-05-13T05:20:29.963Z,97649.34
2023-05-13T05:22:59.765Z,97656.97
2023-05-13T05:25:27.674Z,97659.16
2023-05-13T05:27:55.617Z,97660.41
2023-05-13T05:30:23.832Z,97645.78
2023-05-13T05:32:51.894Z,97653.97
2023-05-13T05:35:20.398Z,97647.63
2023-05-13T05:37:48.330Z,97660.28
2023-05-13T05:40:17.476Z,97653.13
2023-05-13T05:42:45.231Z,97661.75
2023-05-13T05:45:13.088Z,97659.44
2023-05-13T05:47:40.908Z,97660.28
2023-05-13T05:50:09.453Z,97660.50
2023-05-13T05:52:37.219Z,97665.06
2023-05-13T05:55:07.162Z,97664.34
2023-05-13T05:57:36.345Z,97672.28
2023-05-13T06:00:04.571Z,97676.72
2023-05-13T06:02:32.543Z,97677.22
2023-05-13T06:05:00.716Z,97684.19
2023-05-13T06:07:28.477Z,97674.28
2023-05-13T06:09:56.582Z,97679.13
2023-05-13T06:12:24.386Z,97675.53
2023-05-13T06:14:53.535Z,97693.22
2023-05-13T06:17:21.281Z,97690.75
2023-05-13T06:19:49.072Z,97694.41
2023-05-13T06:22:16.845Z,97696.84
2023-05-13T06:24:44.930Z,97697.41
2023-05-13T06:27:12.836Z,97687.78
2023-05-13T06:29:40.714Z,97689.38
2023-05-13T06:32:10.051Z,97697.72
2023-05-13T06:34:40.304Z,97694.09
2023-05-13T06:37:08.603Z,97693.06
2023-05-13T06:39:36.398Z,97688.94
2023-05-13T06:42:04.314Z,97689.31
2023-05-13T06:44:32.165Z,97699.41
2023-05-13T06:47:00.065Z,97690.97
2023-05-13T06:49:29.296Z,97701.31
2023-05-13T06:52:02.869Z,97693.25
2023-05-13T06:54:32.543Z,97701.56
2023-05-13T06:57:00.803Z,97697.47
2023-05-13T06:59:30.274Z,97692.41
2023-05-13T07:01:58.105Z,97694.34
2023-05-13T07:04:26.107Z,97694.28
2023-05-13T07:06:55.333Z,97697.19
2023-05-13T07:09:23.172Z,97699.78
2023-05-13T07:11:51.017Z,97696.31
2023-05-13T07:14:18.852Z,97695.88
2023-05-13T07:16:46.723Z,97688.03
2023-05-13T07:19:14.581Z,97693.69
2023-05-13T07:21:42.475Z,97681.44
2023-05-13T07:24:11.761Z,97691.03
2023-05-13T07:26:39.778Z,97690.63
2023-05-13T07:29:07.592Z,97688.31
2023-05-13T07:31:35.689Z,97688.47
2023-05-13T07:34:03.545Z,97691.88
2023-05-13T07:36:31.799Z,97679.09
2023-05-13T07:38:59.685Z,97691.16
2023-05-13T07:41:28.899Z,97684.25
2023-05-13T07:43:56.642Z,97682.88
2023-05-13T07:46:24.439Z,97692.31
2023-05-13T07:48:52.238Z,97685.78
2023-05-13T07:51:20.098Z,97690.31
2023-05-13T07:53:48.067Z,97698.97
2023-05-13T07:56:15.930Z,97694.19
2023-05-13T07:58:46.095Z,97691.00
2023-05-13T08:01:13.908Z,97687.72
2023-05-13T08:03:41.827Z,97691.34
2023-05-13T08:06:09.714Z,97701.03
2023-05-13T08:08:37.513Z,97691.84
2023-05-13T08:11:05.317Z,97703.22
2023-05-13T08:13:33.102Z,97697.75
2023-05-13T08:16:03.415Z,97701.50
2023-05-13T08:18:31.588Z,97693.81
2023-05-13T08:20:59.476Z,97686.53
2023-05-13T08:23:36.827Z,97694.44
2023-05-13T08:26:11.645Z,97676.28
2023-05-13T08:28:39.470Z,97688.13
2023-05-13T08:31:08.811Z,97691.78
2023-05-13T08:33:36.656Z,97695.50
2023-05-13T08:36:04.799Z,97687.13
2023-05-13T08:38:33.521Z,97683.00
2023-05-13T08:41:01.432Z,97682.63
2023-05-13T08:43:30.604Z,97687.81
2023-05-13T08:46:04.848Z,97691.75
2023-05-13T08:48:35.185Z,97686.94
2023-05-13T08:51:03.080Z,97687.41
2023-05-13T08:53:31.474Z,97695.53
2023-05-13T08:56:00.127Z,97697.09
2023-05-13T08:58:28.107Z,97693.69
2023-05-13T09:00:56.296Z,97693.81
2023-05-13T09:03:24.227Z,97701.13
2023-05-13T09:05:53.354Z,97704.38
2023-05-13T09:08:21.185Z,97688.41
2023-05-13T09:10:49.261Z,97688.28
2023-05-13T09:13:18.839Z,97703.72
2023-05-13T09:15:47.057Z,97705.41
2023-05-13T09:18:18.662Z,97702.34
2023-05-13T09:20:46.879Z,97700.97
2023-05-13T09:23:16.642Z,97702.91
2023-05-13T09:25:44.503Z,97702.56
2023-05-13T09:28:15.412Z,97707.13
2023-05-13T09:30:45.661Z,97709.31
2023-05-13T09:33:15.271Z,97702.88
2023-05-13T09:35:44.222Z,97705.94
2023-05-13T09:38:17.845Z,97702.31
2023-05-13T09:40:52.868Z,97702.34
2023-05-13T09:43:21.979Z,97698.91
2023-05-13T09:45:54.022Z,97697.25
2023-05-13T09:48:22.502Z,97693.78
2023-05-13T09:50:51.326Z,97692.78
2023-05-13T09:53:21.190Z,97693.44
2023-05-13T09:55:49.834Z,97690.75
2023-05-13T09:58:19.017Z,97691.19
2023-05-13T10:00:47.681Z,97687.75
2023-05-13T10:03:16.393Z,97683.53
2023-05-13T10:05:44.483Z,97677.53
2023-05-13T10:08:13.597Z,97686.00
2023-05-13T10:10:45.774Z,97683.94
2023-05-13T10:13:16.028Z,97681.38
2023-05-13T10:15:49.963Z,97688.28
2023-05-13T10:18:18.047Z,97695.88
2023-05-13T10:20:46.024Z,97674.69
2023-05-13T10:23:13.920Z,97680.75
2023-05-13T10:25:43.846Z,97677.56
2023-05-13T10:28:11.755Z,97666.13
2023-05-13T10:30:39.481Z,97671.88
2023-05-13T10:33:07.430Z,97669.63
2023-05-13T10:35:39.827Z,97670.00
2023-05-13T10:38:11.761Z,97655.88
2023-05-13T10:41:02.422Z,97662.19
2023-05-13T10:43:31.010Z,97666.13
2023-05-13T10:46:00.151Z,97657.19
2023-05-13T10:48:28.356Z,97652.00
2023-05-13T10:50:57.212Z,97649.47
2023-05-13T10:53:26.453Z,97643.78
2023-05-13T10:55:55.616Z,97649.41
2023-05-13T10:58:30.073Z,97641.19
2023-05-13T11:01:19.122Z,97638.63
2023-05-13T11:03:54.308Z,97648.50
2023-05-13T11:06:23.742Z,97637.44
2023-05-13T11:08:55.063Z,97634.56
2023-05-13T11:11:33.017Z,97627.53
2023-05-13T11:14:09.306Z,97638.97
2023-05-13T11:16:37.991Z,97632.94
2023-05-13T11:19:10.612Z,97633.53
2023-05-13T11:21:41.186Z,97634.53
2023-05-13T11:24:09.479Z,97617.84
2023-05-13T11:26:46.333Z,97626.22
2023-05-13T11:29:16.034Z,97619.84
2023-05-13T11:31:48.861Z,97622.69
2023-05-13T11:34:17.743Z,97610.28
2023-05-13T11:36:48.010Z,97609.25
2023-05-13T11:39:17.156Z,97614.16
2023-05-13T11:41:47.002Z,97587.34
2023-05-13T11:44:18.337Z,97615.78
2023-05-13T11:46:53.643Z,97610.22
2023-05-13T11:49:38.834Z,97596.97
2023-05-13T11:52:08.037Z,97590.53
2023-05-13T11:54:43.404Z,97590.47
2023-05-13T11:57:25.045Z,97591.34
2023-05-13T11:59:56.164Z,97593.34
2023-05-13T12:02:25.659Z,97589.50
2023-05-13T12:04:53.752Z,97603.25
2023-05-13T12:07:23.419Z,97599.06
2023-05-13T12:09:51.293Z,97609.06
2023-05-13T12:12:20.207Z,97607.88
2023-05-13T12:14:50.258Z,97612.38
2023-05-13T12:17:20.561Z,97611.47
2023-05-13T12:20:11.916Z,97608.72
2023-05-13T12:22:52.356Z,97620.56
2023-05-13T12:25:42.939Z,97619.50
2023-05-13T12:28:13.164Z,97621.31
2023-05-13T12:30:42.334Z,97618.38
2023-05-13T12:33:16.421Z,97624.22
2023-05-13T12:35:44.891Z,97624.66
2023-05-13T12:38:17.378Z,97625.88
2023-05-13T12:40:45.602Z,97620.13
2023-05-13T12:43:13.841Z,97616.81
2023-05-13T12:45:44.743Z,97634.22
2023-05-13T12:48:13.544Z,97620.56
2023-05-13T12:50:43.824Z,97621.00
2023-05-13T12:53:11.652Z,97622.50
2023-05-13T12:55:40.254Z,97622.88
2023-05-13T12:58:10.956Z,97621.50
2023-05-13T13:00:39.026Z,97614.13
2023-05-13T13:03:08.001Z,97614.63
2023-05-13T13:05:36.333Z,97607.41
2023-05-13T13:08:06.380Z,97613.13
2023-05-13T13:10:34.259Z,97620.84
2023-05-13T13:13:02.077Z,97613.47
2023-05-13T13:15:29.960Z,97619.13
2023-05-13T13:17:57.764Z,97620.16
2023-05-13T13:20:25.839Z,97631.25
2023-05-13T13:22:54.198Z,97620.16
2023-05-13T13:25:23.659Z,97625.53
2023-05-13T13:27:51.563Z,97621.53
2023-05-13T13:30:19.305Z,97635.97
2023-05-13T13:32:47.102Z,97626.06
2023-05-13T13:35:14.884Z,97634.06
2023-05-13T13:37:42.661Z,97640.28
2023-05-13T13:40:11.670Z,97647.50
2023-05-13T13:42:44.574Z,97629.38
2023-05-13T13:45:13.589Z,97646.97
2023-05-13T13:47:41.501Z,97642.28
2023-05-13T13:50:10.931Z,97642.13
2023-05-13T13:52:38.777Z,97631.63
2023-05-13T13:55:07.865Z,97612.84
2023-05-13T13:57:40.115Z,97608.97
2023-05-13T14:00:09.224Z,97616.69
2023-05-13T14:02:37.087Z,97604.13
2023-05-13T14:05:05.442Z,97581.63
2023-05-13T14:07:33.266Z,97594.81
2023-05-13T14:10:01.641Z,97602.34
2023-05-13T14:12:29.620Z,97597.75
2023-05-13T14:14:59.794Z,97598.94
2023-05-13T14:17:27.556Z,97603.44
2023-05-13T14:19:55.785Z,97607.56
2023-05-13T14:22:24.152Z,97614.53
2023-05-13T14:24:52.744Z,97598.97
2023-05-13T14:27:20.797Z,97613.44
2023-05-13T14:29:48.967Z,97608.03
2023-05-13T14:32:18.203Z,97610.41
2023-05-13T14:34:46.255Z,97610.56
2023-05-13T14:37:14.036Z,97607.19
2023-05-13T14:39:41.797Z,97613.84
2023-05-13T14:42:11.569Z,97619.69
2023-05-13T14:44:41.442Z,97624.75
2023-05-13T14:47:09.643Z,97620.09
2023-05-13T14:49:38.811Z,97624.19
2023-05-13T14:52:06.865Z,97616.34
2023-05-13T14:54:35.822Z,97611.47
2023-05-13T14:57:03.878Z,97611.47
2023-05-13T14:59:31.859Z,97614.91
2023-05-13T15:01:59.648Z,97608.72
2023-05-13T15:04:27.936Z,97608.16
2023-05-13T15:06:57.300Z,97605.13
2023-05-13T15:09:25.016Z,97602.84
2023-05-13T15:11:52.793Z,97595.81
2023-05-13T15:14:21.615Z,97607.94
2023-05-13T15:16:49.470Z,97606.84
2023-05-13T15:19:17.279Z,97603.53
2023-05-13T15:21:45.125Z,97603.97
2023-05-13T15:24:14.213Z,97610.81
2023-05-13T15:26:41.966Z,97604.63
2023-05-13T15:29:09.799Z,97598.50
2023-05-13T15:31:37.555Z,97592.22
2023-05-13T15:34:05.322Z,97607.44
2023-05-13T15:36:34.669Z,97603.97
2023-05-13T15:39:02.813Z,97599.97
2023-05-13T15:41:31.969Z,97610.50
2023-05-13T15:43:59.754Z,97605.72
2023-05-13T15:46:27.682Z,97616.59
2023-05-13T15:48:55.529Z,97614.00
2023-05-13T15:51:23.289Z,97605.06
2023-05-13T15:53:51.055Z,97605.13
2023-05-13T15:56:18.786Z,97596.00
2023-05-13T15:58:47.995Z,97575.53
2023-05-13T16:01:15.772Z,97597.25
2023-05-13T16:03:43.591Z,97588.22
2023-05-13T16:06:11.426Z,97583.91
2023-05-13T16:08:39.210Z,97590.59
2023-05-13T16:11:07.021Z,97594.25
2023-05-13T16:13:34.782Z,97584.81
2023-05-13T16:16:03.916Z,97585.91
2023-05-13T16:18:31.742Z,97585.41
2023-05-13T16:20:59.556Z,97591.00
2023-05-13T16:23:27.355Z,97580.28
2023-05-13T16:25:55.211Z,97584.66
2023-05-13T16:28:22.937Z,97577.94
2023-05-13T16:30:51.388Z,97577.59
2023-05-13T16:33:20.509Z,97581.78
2023-05-13T16:35:48.268Z,97569.56
2023-05-13T16:38:16.013Z,97576.28
2023-05-13T16:40:43.879Z,97573.41
2023-05-13T16:43:11.660Z,97577.69
2023-05-13T16:45:39.770Z,97574.63
2023-05-13T16:48:07.794Z,97571.63
2023-05-13T16:50:37.234Z,97576.94
2023-05-13T16:53:04.976Z,97575.66
2023-05-13T16:55:32.929Z,97566.38
2023-05-13T16:58:01.502Z,97571.56
2023-05-13T17:00:30.247Z,97569.47
2023-05-13T17:02:58.157Z,97574.50
2023-05-13T17:05:26.090Z,97565.38
2023-05-13T17:07:55.231Z,97571.16
2023-05-13T17:10:23.197Z,97571.03
2023-05-13T17:12:51.089Z,97577.75
2023-05-13T17:15:19.025Z,97568.56
2023-05-13T17:17:46.898Z,97561.69
2023-05-13T17:20:14.748Z,97565.69
2023-05-13T17:22:45.435Z,97566.72
2023-05-13T17:25:14.591Z,97563.91
2023-05-13T17:27:42.424Z,97561.31
2023-05-13T17:30:10.999Z,97562.47
2023-05-13T17:32:38.760Z,97555.97
2023-05-13T17:35:07.652Z,97557.50
2023-05-13T17:37:35.422Z,97562.78
2023-05-13T17:40:03.166Z,97561.88
2023-05-13T17:42:33.584Z,97561.16
2023-05-13T17:45:02.093Z,97555.53
2023-05-13T17:47:30.029Z,97562.69
2023-05-13T17:49:57.796Z,97567.88
2023-05-13T17:52:25.666Z,97570.84
2023-05-13T17:54:53.441Z,97574.19
2023-05-13T17:57:21.344Z,97570.84
2023-05-13T17:59:50.523Z,97576.75
2023-05-13T18:02:18.370Z,97565.84
2023-05-13T18:04:46.238Z,97536.88
2023-05-13T18:07:14.011Z,97575.75
2023-05-13T18:09:41.790Z,97569.09
2023-05-13T18:12:09.688Z,97580.94
2023-05-13T18:14:37.436Z,97580.53
2023-05-13T18:17:06.660Z,97584.06
2023-05-13T18:19:34.445Z,97584.19
2023-05-13T18:22:02.229Z,97581.25
2023-05-13T18:24:29.974Z,97594.22
2023-05-13T18:26:57.762Z,97592.91
2023-05-13T18:29:25.763Z,97596.72
2023-05-13T18:31:53.682Z,97602.91
2023-05-13T18:34:22.907Z,97599.88
2023-05-13T18:36:52.008Z,97598.47
2023-05-13T18:39:20.675Z,97592.66
2023-05-13T18:41:48.438Z,97596.59
2023-05-13T18:44:16.297Z,97599.28
2023-05-13T18:46:45.098Z,97605.34
2023-05-13T18:49:13.104Z,97603.56
2023-05-13T18:51:42.371Z,97598.88
2023-05-13T18:54:10.176Z,97606.38
2023-05-13T18:56:38.031Z,97615.06
2023-05-13T18:59:06.112Z,97612.34
2023-05-13T19:01:33.997Z,97615.31
2023-05-13T19:04:02.008Z,97616.16
2023-05-13T19:06:29.861Z,97613.84
2023-05-13T19:08:59.051Z,97614.97
2023-05-13T19:11:26.770Z,97618.22
2023-05-13T19:13:54.538Z,97621.09
2023-05-13T19:16:22.317Z,97612.69
2023-05-13T19:18:50.174Z,97616.78
2023-05-13T19:21:18.096Z,97620.59
2023-05-13T19:23:45.860Z,97615.41
2023-05-13T19:26:15.175Z,97616.63
2023-05-13T19:28:43.881Z,97617.31
2023-05-13T19:31:11.750Z,97616.00
2023-05-13T19:33:39.512Z,97611.91
2023-05-13T19:36:07.932Z,97616.25
2023-05-13T19:38:36.414Z,97611.81
2023-05-13T19:41:04.718Z,97614.44
2023-05-13T19:43:33.897Z,97619.59
2023-05-13T19:46:01.725Z,97615.63
2023-05-13T19:48:30.127Z,97622.97
2023-05-13T19:50:58.519Z,97614.53
2023-05-13T19:53:26.643Z,97615.25
2023-05-13T19:55:54.406Z,97617.69
2023-05-13T19:58:22.171Z,97607.69
2023-05-13T20:00:51.272Z,97611.66
2023-05-13T20:03:19.092Z,97607.59
2023-05-13T20:05:48.192Z,97600.84
2023-05-13T20:08:15.995Z,97611.56
2023-05-13T20:10:44.013Z,97621.09
2023-05-13T20:13:11.776Z,97620.13
2023-05-13T20:15:39.525Z,97611.22
2023-05-13T20:18:08.850Z,97618.06
2023-05-13T20:20:36.750Z,97610.25
2023-05-13T20:23:04.538Z,97617.25
2023-05-13T20:25:32.309Z,97612.78
2023-05-13T20:28:00.066Z,97613.63
2023-05-13T20:30:27.866Z,97612.78
2023-05-13T20:32:55.694Z,97613.88
2023-05-13T20:35:24.966Z,97618.44
2023-05-13T20:37:52.715Z,97614.34
2023-05-13T20:40:20.594Z,97618.53
2023-05-13T20:42:48.471Z,97618.66
2023-05-13T20:45:16.242Z,97617.31
2023-05-13T20:47:43.996Z,97624.13
2023-05-13T20:50:12.783Z,97622.63
2023-05-13T20:52:41.937Z,97618.19
2023-05-13T20:55:11.108Z,97611.56
2023-05-13T20:57:38.848Z,97613.69
2023-05-13T21:00:07.870Z,97614.38
2023-05-13T21:02:35.690Z,97613.72
2023-05-13T21:05:03.508Z,97614.28
2023-05-13T21:07:31.217Z,97615.50
2023-05-13T21:10:00.345Z,97605.38
2023-05-13T21:12:28.261Z,97610.88
2023-05-13T21:14:56.020Z,97609.53
2023-05-13T21:17:35.173Z,97609.88
2023-05-13T21:20:04.502Z,97612.13
2023-05-13T21:22:32.569Z,97608.84
2023-05-13T21:25:02.135Z,97608.84
2023-05-13T21:27:29.884Z,97615.09
2023-05-13T21:29:57.794Z,97613.72
2023-05-13T21:32:25.695Z,97613.84
2023-05-13T21:34:53.544Z,97611.34
2023-05-13T21:37:21.321Z,97614.06
2023-05-13T21:39:49.110Z,97612.38
2023-05-13T21:42:19.015Z,97619.38
2023-05-13T21:44:46.944Z,97615.03
2023-05-13T21:47:15.650Z,97615.13
2023-05-13T21:49:44.295Z,97611.78
2023-05-13T21:52:12.089Z,97611.03
2023-05-13T21:54:40.953Z,97615.69
2023-05-13T21:57:09.032Z,97609.78
2023-05-13T21:59:38.099Z,97608.19
2023-05-13T22:02:06.051Z,97603.16
2023-05-13T22:04:33.903Z,97605.03
2023-05-13T22:07:02.205Z,97589.28
2023-05-13T22:09:29.941Z,97591.84
2023-05-13T22:11:57.756Z,97592.88
2023-05-13T22:14:25.492Z,97591.34
2023-05-13T22:17:07.571Z,97594.19
2023-05-13T22:19:36.847Z,97591.63
2023-05-13T22:22:04.858Z,97594.63
2023-05-13T22:24:32.672Z,97600.09
2023-05-13T22:27:00.466Z,97600.34
2023-05-13T22:29:28.312Z,97603.09
2023-05-13T22:31:57.816Z,97591.06
2023-05-13T22:34:26.760Z,97588.53
2023-05-13T22:36:54.612Z,97594.94
2023-05-13T22:39:22.395Z,97602.88
2023-05-13T22:41:50.385Z,97604.81
2023-05-13T22:44:18.195Z,97594.53
2023-05-13T22:46:46.090Z,97599.31
2023-05-13T22:49:15.394Z,97594.97
2023-05-13T22:51:43.315Z,97588.00
2023-05-13T22:54:11.095Z,97589.06
2023-05-13T22:56:38.842Z,97586.63
2023-05-13T22:59:06.623Z,97582.44
2023-05-13T23:01:34.454Z,97582.63
2023-05-13T23:04:02.304Z,97581.25
2023-05-13T23:06:31.529Z,97580.50
2023-05-13T23:08:59.341Z,97575.44
2023-05-13T23:11:27.123Z,97570.56
2023-05-13T23:13:55.240Z,97564.06
2023-05-13T23:16:23.089Z,97575.84
2023-05-13T23:18:51.004Z,97575.22
2023-05-13T23:21:18.783Z,97576.25
2023-05-13T23:23:50.215Z,97579.13
2023-05-13T23:26:17.953Z,97566.97
2023-05-13T23:28:45.735Z,97571.41
2023-05-13T23:31:13.557Z,97565.53
2023-05-13T23:33:41.422Z,97564.88
2023-05-13T23:36:09.490Z,97562.13
2023-05-13T23:38:37.255Z,97557.91
2023-05-13T23:41:06.422Z,97565.09
2023-05-13T23:43:34.187Z,97563.59
2023-05-13T23:46:02.091Z,97561.19
2023-05-13T23:48:31.748Z,97563.06
2023-05-13T23:50:59.619Z,97550.94
2023-05-13T23:53:27.417Z,97551.91
2023-05-13T23:55:55.203Z,97550.31
2023-05-13T23:58:24.305Z,97547.78
